Time;durP1;ratioP1;P1;durP2;ratioP2;P2;SDS_P1;SDS_P2;PMS_P1;PMS_P2;Temp;Humidity;BMP_temperature;BMP_pressure;BME280_temperature;BME280_humidity;BME280_pressure;Samples;Min_cycle;Max_cycle;Signal;HPM_P1;HPM_P2
2022/11/23 14:41:33;;;;;;;4.00;1.50;;;10.60;99.90;;;;;;5112214;27;20572;-72
2022/11/23 14:44:00;;;;;;;3.10;1.33;;;10.30;99.90;;;;;;5084766;28;20172;-75
2022/11/23 14:46:25;;;;;;;3.38;1.15;;;10.40;99.90;;;;;;5073905;28;20183;-76
2022/11/23 14:49:06;;;;;;;4.22;1.20;;;10.60;99.90;;;;;;5071603;28;20172;-74
2022/11/23 14:51:33;;;;;;;5.93;1.40;;;10.70;99.90;;;;;;5057583;28;20176;-75
2022/11/23 14:54:05;;;;;;;3.38;1.30;;;10.90;99.90;;;;;;5108352;28;20271;-72
2022/11/23 14:56:37;;;;;;;3.28;1.40;;;11.10;99.90;;;;;;5105215;28;20190;-74
2022/11/23 14:59:25;;;;;;;2.90;1.13;;;11.30;99.90;;;;;;5086465;28;20175;-75
2022/11/23 15:01:56;;;;;;;4.55;1.30;;;11.40;99.90;;;;;;5101644;28;20182;-75
2022/11/23 15:04:33;;;;;;;4.63;1.10;;;11.50;99.90;;;;;;5107915;28;20287;-75
2022/11/23 15:07:17;;;;;;;3.45;1.48;;;11.60;99.90;;;;;;5075089;28;20178;-75
2022/11/23 15:09:58;;;;;;;3.40;1.10;;;11.70;99.90;;;;;;5073459;28;20180;-76
2022/11/23 15:12:39;;;;;;;2.08;1.10;;;11.70;99.90;;;;;;5109671;28;20196;-72
2022/11/23 15:15:15;;;;;;;3.47;1.10;;;11.80;99.90;;;;;;5093503;28;20181;-74
2022/11/23 15:17:58;;;;;;;2.28;1.05;;;11.80;99.90;;;;;;5092931;28;20177;-73
2022/11/23 15:20:31;;;;;;;1.67;0.82;;;11.90;99.90;;;;;;5110175;28;20261;-73
2022/11/23 15:22:59;;;;;;;2.13;1.08;;;11.90;99.90;;;;;;5110549;28;20179;-72
2022/11/23 15:25:26;;;;;;;2.70;1.08;;;11.90;99.90;;;;;;5102158;28;20180;-74
2022/11/23 15:27:52;;;;;;;3.40;1.00;;;11.90;99.90;;;;;;5107937;28;20355;-72
2022/11/23 15:30:36;;;;;;;3.40;1.10;;;11.90;99.90;;;;;;5106696;28;20230;-74
2022/11/23 15:33:08;;;;;;;2.10;1.00;;;11.90;99.90;;;;;;5108269;28;20252;-73
2022/11/23 15:35:35;;;;;;;3.63;1.27;;;11.90;99.90;;;;;;5116687;28;20187;-72
2022/11/23 15:38:03;;;;;;;5.63;1.77;;;11.80;99.90;;;;;;5075002;28;20236;-73
2022/11/23 15:40:35;;;;;;;2.90;1.40;;;11.90;99.90;;;;;;5075931;28;21241;-74
2022/11/23 15:43:05;;;;;;;2.85;1.20;;;11.80;99.90;;;;;;5106610;28;20177;-73
2022/11/23 15:45:34;;;;;;;3.08;1.05;;;11.80;99.90;;;;;;5065593;28;20176;-74
2022/11/23 15:48:09;;;;;;;4.35;1.35;;;11.90;99.90;;;;;;5103922;28;20172;-73
2022/11/23 15:50:46;;;;;;;3.33;0.88;;;11.80;99.90;;;;;;5073976;28;20214;-72
2022/11/23 15:53:12;;;;;;;3.10;1.30;;;11.80;99.90;;;;;;5091315;28;20222;-76
2022/11/23 15:55:40;;;;;;;2.05;1.10;;;11.80;99.90;;;;;;5090605;28;20184;-77
2022/11/23 15:58:09;;;;;;;4.25;1.40;;;11.80;99.90;;;;;;5049468;28;20186;-72
2022/11/23 16:00:37;;;;;;;2.72;1.20;;;11.80;99.90;;;;;;5085872;28;20189;-76
2022/11/23 16:03:22;;;;;;;2.60;1.10;;;11.80;99.90;;;;;;5093452;28;20181;-79
2022/11/23 16:06:13;;;;;;;1.90;1.08;;;11.80;99.90;;;;;;5058585;28;20181;-79
2022/11/23 16:08:40;;;;;;;3.22;1.10;;;11.80;99.90;;;;;;5099703;28;20177;-75
2022/11/23 16:11:17;;;;;;;2.42;1.00;;;11.70;99.90;;;;;;5092181;28;20185;-78
2022/11/23 16:13:44;;;;;;;2.50;1.00;;;11.70;99.90;;;;;;5093469;28;20184;-77
2022/11/23 16:16:17;;;;;;;2.30;1.00;;;11.60;99.90;;;;;;5060110;28;20191;-77
2022/11/23 16:18:44;;;;;;;2.15;0.88;;;11.60;99.90;;;;;;5064048;28;20241;-77
2022/11/23 16:21:15;;;;;;;2.25;1.05;;;11.50;99.90;;;;;;5058190;28;20215;-76
2022/11/23 16:23:47;;;;;;;3.17;0.98;;;11.30;99.90;;;;;;5056185;28;20172;-75
2022/11/23 16:26:19;;;;;;;2.63;0.93;;;11.20;99.90;;;;;;5091376;28;20184;-76
2022/11/23 16:28:56;;;;;;;3.95;1.00;;;11.20;99.90;;;;;;5092208;28;20185;-78
2022/11/23 16:31:54;;;;;;;3.72;1.15;;;11.10;99.90;;;;;;5049330;28;20184;-78
2022/11/23 16:34:26;;;;;;;1.88;1.00;;;11.00;99.90;;;;;;5092456;28;20199;-77
2022/11/23 16:36:54;;;;;;;3.45;0.95;;;10.90;99.90;;;;;;5089707;28;20246;-77
2022/11/23 16:39:24;;;;;;;3.08;1.00;;;10.90;99.90;;;;;;5097741;28;20290;-77
2022/11/23 16:41:58;;;;;;;2.75;1.02;;;10.80;99.90;;;;;;5103172;28;20179;-77
2022/11/23 16:44:23;;;;;;;3.33;1.20;;;10.80;99.90;;;;;;5089577;28;20273;-77
2022/11/23 16:46:51;;;;;;;5.53;1.27;;;10.70;99.90;;;;;;5097694;28;20208;-77
2022/11/23 16:49:20;;;;;;;2.83;1.10;;;10.60;99.90;;;;;;5056742;28;20180;-77
2022/11/23 16:51:49;;;;;;;2.88;1.10;;;10.50;99.90;;;;;;5053214;28;20242;-78
2022/11/23 16:54:20;;;;;;;2.33;1.08;;;10.50;99.90;;;;;;5089632;28;20185;-77
2022/11/23 16:56:48;;;;;;;4.07;1.70;;;10.50;99.90;;;;;;5088984;28;20177;-75
2022/11/23 16:59:21;;;;;;;2.00;1.13;;;10.40;99.90;;;;;;5084547;28;20200;-74
2022/11/23 17:01:49;;;;;;;3.38;1.10;;;10.30;99.90;;;;;;5071221;28;20184;-77
2022/11/23 17:04:15;;;;;;;2.42;1.30;;;10.20;99.90;;;;;;5059949;28;20303;-76
2022/11/23 17:06:44;;;;;;;4.15;1.27;;;10.20;99.90;;;;;;5096691;28;20188;-70
2022/11/23 17:09:10;;;;;;;2.85;1.40;;;10.20;99.90;;;;;;5088508;28;20214;-75
2022/11/23 17:11:41;;;;;;;3.70;1.33;;;10.20;99.90;;;;;;5092265;28;20188;-70
2022/11/23 17:14:09;;;;;;;3.93;1.30;;;10.10;99.90;;;;;;5056044;28;20192;-77
2022/11/23 17:16:35;;;;;;;2.30;1.00;;;10.10;99.90;;;;;;5092689;28;20234;-76
2022/11/23 17:19:00;;;;;;;3.20;1.30;;;10.10;99.90;;;;;;5092174;28;20212;-77
2022/11/23 17:21:26;;;;;;;2.92;1.10;;;10.10;99.90;;;;;;5092371;28;20196;-76
2022/11/23 17:23:51;;;;;;;2.58;1.13;;;10.10;99.90;;;;;;5083547;28;20177;-76
2022/11/23 17:26:25;;;;;;;1.70;1.00;;;10.10;99.90;;;;;;5089364;28;20208;-75
2022/11/23 17:28:51;;;;;;;2.23;1.20;;;10.10;99.90;;;;;;5081870;28;20180;-78
2022/11/23 17:31:20;;;;;;;2.53;1.00;;;10.10;99.90;;;;;;5099841;28;20188;-77
2022/11/23 17:33:46;;;;;;;3.67;1.17;;;10.10;99.90;;;;;;5101186;28;20184;-77
2022/11/23 17:36:11;;;;;;;2.47;1.00;;;10.10;99.90;;;;;;5092201;28;20195;-79
2022/11/23 17:38:37;;;;;;;1.70;0.90;;;10.10;99.90;;;;;;5058392;28;20180;-78
2022/11/23 17:41:03;;;;;;;1.90;1.27;;;10.00;99.90;;;;;;5097014;28;20231;-78
2022/11/23 17:43:30;;;;;;;1.95;1.10;;;10.00;99.90;;;;;;5089808;28;20181;-78
2022/11/23 17:45:56;;;;;;;2.63;0.95;;;10.00;99.90;;;;;;5096183;28;20212;-79
2022/11/23 17:48:21;;;;;;;3.33;1.03;;;10.00;99.90;;;;;;5099240;28;20196;-78
2022/11/23 17:50:47;;;;;;;2.00;0.87;;;10.00;99.90;;;;;;5091762;28;20211;-79
2022/11/23 17:53:16;;;;;;;1.67;0.87;;;10.00;99.90;;;;;;5058674;28;20180;-80
2022/11/23 17:55:41;;;;;;;3.13;1.20;;;10.00;99.90;;;;;;5057778;28;20208;-79
2022/11/23 17:58:08;;;;;;;2.80;1.20;;;10.00;99.90;;;;;;5097885;28;20217;-79
2022/11/23 18:00:39;;;;;;;1.63;1.00;;;10.00;99.90;;;;;;5103326;28;20290;-79
2022/11/23 18:03:05;;;;;;;2.90;1.50;;;10.00;99.90;;;;;;5090937;28;20177;-79
2022/11/23 18:05:33;;;;;;;2.73;1.20;;;10.00;99.90;;;;;;5094525;28;20175;-78
2022/11/23 18:07:58;;;;;;;2.97;1.35;;;10.00;99.90;;;;;;5063623;28;20173;-79
2022/11/23 18:10:24;;;;;;;3.28;1.58;;;10.00;99.90;;;;;;5046923;28;20188;-80
2022/11/23 18:12:49;;;;;;;3.07;1.30;;;10.00;99.90;;;;;;5092117;28;20172;-78
2022/11/23 18:15:15;;;;;;;3.63;1.60;;;10.00;99.90;;;;;;5091038;28;20263;-78
2022/11/23 18:17:41;;;;;;;1.88;1.30;;;10.00;99.90;;;;;;5050614;28;20177;-78
2022/11/23 18:20:08;;;;;;;2.10;1.10;;;10.00;99.90;;;;;;5050179;28;20211;-78
2022/11/23 18:22:34;;;;;;;1.83;1.10;;;10.00;99.90;;;;;;5075195;28;20187;-78
2022/11/23 18:25:00;;;;;;;2.20;1.17;;;10.00;99.90;;;;;;5100130;28;20259;-78
2022/11/23 18:27:28;;;;;;;1.40;0.90;;;10.00;99.90;;;;;;5090999;28;20172;-78
2022/11/23 18:29:54;;;;;;;2.83;1.20;;;10.00;99.90;;;;;;5089163;28;20184;-78
2022/11/23 18:32:20;;;;;;;3.10;1.20;;;10.10;99.90;;;;;;5055134;28;20175;-77
2022/11/23 18:34:45;;;;;;;2.50;1.27;;;10.00;99.90;;;;;;5081205;28;20177;-78
2022/11/23 18:37:11;;;;;;;3.80;1.27;;;10.00;99.90;;;;;;5089232;28;20187;-77
2022/11/23 18:39:37;;;;;;;2.93;1.17;;;10.00;99.90;;;;;;5088840;28;20211;-77
2022/11/23 18:42:02;;;;;;;3.20;1.50;;;10.00;99.90;;;;;;5058240;28;20164;-76
2022/11/23 18:44:28;;;;;;;1.60;1.10;;;10.00;99.90;;;;;;5093822;28;20200;-76
2022/11/23 18:46:54;;;;;;;2.20;1.10;;;10.00;99.90;;;;;;5093119;28;20168;-77
2022/11/23 18:49:19;;;;;;;2.70;1.10;;;10.00;99.90;;;;;;5090708;28;20169;-75
2022/11/23 18:51:47;;;;;;;2.60;1.30;;;10.00;99.90;;;;;;5075812;28;20268;-76
2022/11/23 18:54:13;;;;;;;2.20;1.30;;;10.00;99.90;;;;;;5047409;28;20196;-76
2022/11/23 18:56:38;;;;;;;2.13;1.05;;;10.00;99.90;;;;;;5090319;28;20199;-74
2022/11/23 18:59:08;;;;;;;1.83;1.17;;;10.00;99.90;;;;;;5086773;28;20196;-77
2022/11/23 19:01:34;;;;;;;1.40;1.20;;;9.90;99.90;;;;;;5088104;28;20187;-77
2022/11/23 19:04:00;;;;;;;2.53;1.20;;;10.00;99.90;;;;;;5092111;28;20173;-76
2022/11/23 19:06:26;;;;;;;2.38;1.20;;;9.90;99.90;;;;;;5106488;28;20184;-75
2022/11/23 19:09:01;;;;;;;3.37;1.30;;;9.90;99.90;;;;;;5093419;28;20180;-77
2022/11/23 19:11:28;;;;;;;1.83;1.10;;;9.90;99.90;;;;;;5093622;28;20169;-77
2022/11/23 19:13:56;;;;;;;2.13;1.00;;;9.80;99.90;;;;;;5099634;28;20187;-77
2022/11/23 19:16:27;;;;;;;1.60;1.00;;;9.90;99.90;;;;;;5092143;28;20177;-76
2022/11/23 19:18:58;;;;;;;3.43;1.20;;;9.80;99.90;;;;;;5086570;28;20177;-77
2022/11/23 19:21:29;;;;;;;2.67;1.20;;;9.80;99.90;;;;;;5085267;28;20181;-77
2022/11/23 19:23:58;;;;;;;2.57;1.13;;;9.70;99.90;;;;;;5090102;28;20169;-76
2022/11/23 19:26:25;;;;;;;3.07;1.13;;;9.70;99.90;;;;;;5081819;28;20180;-77
2022/11/23 19:28:54;;;;;;;2.23;1.00;;;9.60;99.90;;;;;;5092116;28;20181;-77
2022/11/23 19:31:22;;;;;;;1.67;0.90;;;9.60;99.90;;;;;;5053682;28;20263;-77
2022/11/23 19:33:53;;;;;;;2.00;1.23;;;9.60;99.90;;;;;;5103130;28;20262;-77
2022/11/23 19:36:25;;;;;;;1.50;1.10;;;9.60;99.90;;;;;;5100396;28;20215;-76
2022/11/23 19:38:51;;;;;;;1.90;1.10;;;9.50;99.90;;;;;;5093929;28;20267;-75
2022/11/23 19:41:17;;;;;;;2.90;1.60;;;9.40;99.90;;;;;;5055586;28;20208;-74
2022/11/23 19:43:44;;;;;;;2.53;1.73;;;9.40;99.90;;;;;;5093972;28;20255;-77
2022/11/23 19:46:15;;;;;;;2.37;1.50;;;9.40;99.90;;;;;;5091674;28;20184;-77
2022/11/23 19:48:46;;;;;;;1.43;1.00;;;9.30;99.90;;;;;;5060527;28;20177;-77
2022/11/23 19:51:19;;;;;;;2.57;1.47;;;9.30;99.90;;;;;;5099830;28;20312;-77
2022/11/23 19:53:48;;;;;;;3.10;1.40;;;9.30;99.90;;;;;;5092377;28;20185;-78
2022/11/23 19:56:22;;;;;;;2.40;1.40;;;9.20;99.90;;;;;;5094166;28;20208;-78
2022/11/23 19:58:56;;;;;;;2.77;1.40;;;9.20;99.90;;;;;;5103098;28;20222;-78
2022/11/23 20:01:26;;;;;;;1.90;1.20;;;9.20;99.90;;;;;;5097934;28;20210;-78
2022/11/23 20:03:56;;;;;;;2.27;1.33;;;9.10;99.90;;;;;;5101543;28;20183;-78
2022/11/23 20:06:27;;;;;;;3.47;1.40;;;9.10;99.90;;;;;;5094355;28;20176;-78
2022/11/23 20:09:15;;;;;;;2.57;1.30;;;9.10;99.90;;;;;;5054040;28;20180;-77
2022/11/23 20:11:41;;;;;;;1.80;1.30;;;9.10;99.90;;;;;;5087078;28;20185;-78
2022/11/23 20:14:10;;;;;;;3.77;1.30;;;9.10;99.90;;;;;;5052707;28;20177;-77
2022/11/23 20:16:56;;;;;;;1.83;1.27;;;9.10;99.90;;;;;;5091715;28;20172;-76
2022/11/23 20:19:21;;;;;;;3.57;1.50;;;9.10;99.90;;;;;;5093121;28;20206;-78
2022/11/23 20:21:49;;;;;;;3.00;1.30;;;9.10;99.90;;;;;;5075788;28;20251;-76
2022/11/23 20:24:17;;;;;;;5.13;1.47;;;9.10;99.90;;;;;;5085571;28;20169;-76
2022/11/23 20:26:43;;;;;;;2.13;1.30;;;9.10;99.90;;;;;;5058880;28;20176;-76
2022/11/23 20:29:13;;;;;;;3.43;1.40;;;9.00;99.90;;;;;;5058342;28;20182;-77
2022/11/23 20:31:43;;;;;;;3.10;1.47;;;9.10;99.90;;;;;;5067526;28;20176;-76
2022/11/23 20:34:09;;;;;;;2.83;1.37;;;9.10;99.90;;;;;;5103748;28;20177;-77
2022/11/23 20:36:36;;;;;;;3.30;1.50;;;9.00;99.90;;;;;;5079264;28;20199;-75
2022/11/23 20:39:04;;;;;;;2.53;1.30;;;9.00;99.90;;;;;;5091806;28;20173;-76
2022/11/23 20:41:33;;;;;;;3.03;1.50;;;9.00;99.90;;;;;;5092567;28;20169;-76
2022/11/23 20:44:04;;;;;;;2.00;1.30;;;9.00;99.90;;;;;;5103627;28;20249;-76
2022/11/23 20:46:33;;;;;;;2.80;1.57;;;9.00;99.90;;;;;;5051978;28;20178;-76
2022/11/23 20:49:02;;;;;;;6.17;3.37;;;9.00;99.90;;;;;;5050092;28;20183;-76
2022/11/23 20:51:30;;;;;;;6.17;3.90;;;8.90;99.90;;;;;;5066523;28;20180;-77
2022/11/23 20:53:56;;;;;;;3.77;2.90;;;8.90;99.90;;;;;;5082837;28;20177;-76
2022/11/23 20:56:24;;;;;;;4.57;2.37;;;8.90;99.90;;;;;;5060837;28;20183;-77
2022/11/23 20:58:58;;;;;;;2.63;1.97;;;8.90;99.90;;;;;;5094362;28;20208;-77
2022/11/23 21:01:24;;;;;;;4.67;2.10;;;8.90;99.90;;;;;;5091909;28;20290;-77
2022/11/23 21:03:57;;;;;;;4.43;1.83;;;8.90;99.90;;;;;;5092452;28;20180;-75
2022/11/23 21:06:23;;;;;;;3.93;2.00;;;8.90;99.90;;;;;;5092392;28;20173;-76
2022/11/23 21:08:50;;;;;;;4.90;2.17;;;8.80;99.90;;;;;;5075892;28;20241;-77
2022/11/23 21:14:13;;;;;;;3.33;2.20;;;8.80;99.90;;;;;;5080153;28;21640;-76
2022/11/23 21:16:51;;;;;;;3.30;1.70;;;8.70;99.90;;;;;;5090051;28;20206;-75
2022/11/23 21:19:21;;;;;;;2.80;1.80;;;8.70;99.90;;;;;;5083682;28;20180;-76
2022/11/23 21:21:48;;;;;;;3.30;1.60;;;8.70;99.90;;;;;;5094763;28;20176;-75
2022/11/23 21:24:17;;;;;;;2.70;1.57;;;8.70;99.90;;;;;;5078118;28;20177;-75
2022/11/23 21:26:45;;;;;;;3.90;1.80;;;8.70;99.90;;;;;;5090030;28;20233;-76
2022/11/23 21:29:11;;;;;;;4.63;1.80;;;8.70;99.90;;;;;;5094110;28;20198;-76
2022/11/23 21:31:41;;;;;;;3.67;1.63;;;8.70;99.90;;;;;;5091737;28;20180;-76
2022/11/23 21:34:09;;;;;;;4.93;1.90;;;8.80;99.90;;;;;;5092110;28;20168;-76
2022/11/23 21:36:41;;;;;;;3.40;1.63;;;8.60;99.90;;;;;;5101596;28;20179;-76
2022/11/23 21:39:09;;;;;;;3.47;1.90;;;8.60;99.90;;;;;;5090761;28;20177;-75
2022/11/23 21:41:40;;;;;;;3.83;1.73;;;8.60;99.90;;;;;;5053858;28;20176;-75
2022/11/23 21:44:07;;;;;;;3.03;1.63;;;8.70;99.90;;;;;;5091997;28;20177;-77
2022/11/23 21:46:36;;;;;;;4.53;1.93;;;8.60;99.90;;;;;;5091246;28;20183;-76
2022/11/23 21:49:02;;;;;;;5.83;1.80;;;8.60;99.90;;;;;;5090532;28;20218;-76
2022/11/23 21:51:29;;;;;;;3.63;1.83;;;8.60;99.90;;;;;;5079928;28;20187;-76
2022/11/23 21:53:57;;;;;;;4.23;1.70;;;8.70;99.90;;;;;;5056713;28;20177;-75
2022/11/23 21:56:26;;;;;;;3.60;1.57;;;8.70;99.90;;;;;;5094741;28;20181;-77
2022/11/23 21:58:51;;;;;;;4.13;1.93;;;8.70;99.90;;;;;;5054620;28;20187;-77
2022/11/23 22:01:38;;;;;;;6.80;2.40;;;8.80;99.90;;;;;;5055913;28;20200;-76
2022/11/23 22:04:14;;;;;;;6.57;1.97;;;8.80;99.90;;;;;;5099584;28;20774;-76
2022/11/23 22:06:43;;;;;;;4.40;1.83;;;8.80;99.90;;;;;;5057883;28;20168;-76
2022/11/23 22:09:14;;;;;;;7.33;2.40;;;8.90;99.90;;;;;;5057106;28;20187;-76
2022/11/23 22:11:43;;;;;;;7.43;2.13;;;9.00;99.90;;;;;;5091467;28;20168;-77
2022/11/23 22:14:14;;;;;;;9.13;2.20;;;9.10;99.90;;;;;;5090848;28;20206;-76
2022/11/23 22:16:41;;;;;;;6.60;1.87;;;9.20;99.90;;;;;;5079304;28;20386;-77
2022/11/23 22:19:14;;;;;;;9.07;2.17;;;9.30;99.90;;;;;;5054639;28;20169;-78
2022/11/23 22:21:41;;;;;;;7.30;2.17;;;9.30;99.90;;;;;;5084495;28;20169;-78
2022/11/23 22:24:12;;;;;;;5.07;1.70;;;9.40;99.90;;;;;;5070324;28;20180;-78
2022/11/23 22:26:46;;;;;;;8.17;2.57;;;9.60;99.90;;;;;;5095064;28;20173;-78
2022/11/23 22:29:12;;;;;;;7.97;2.10;;;9.70;99.90;;;;;;5053935;28;20188;-78
2022/11/23 22:31:38;;;;;;;7.53;2.13;;;9.80;99.90;;;;;;5089409;28;20181;-76
2022/11/23 22:34:08;;;;;;;7.10;2.00;;;9.80;99.90;;;;;;5090321;28;20481;-78
2022/11/23 22:36:34;;;;;;;6.97;1.90;;;9.90;99.90;;;;;;5080879;28;20183;-78
2022/11/23 22:39:02;;;;;;;7.73;1.70;;;10.00;99.90;;;;;;5082546;28;20173;-77
2022/11/23 22:41:29;;;;;;;6.25;2.28;;;10.10;99.90;;;;;;5066418;28;20200;-78
2022/11/23 22:43:55;;;;;;;5.97;2.03;;;10.10;99.90;;;;;;5089763;28;20176;-77
2022/11/23 22:46:24;;;;;;;6.57;1.63;;;10.10;99.90;;;;;;5082262;28;20180;-78
2022/11/23 22:48:51;;;;;;;6.35;1.92;;;10.10;99.90;;;;;;5055034;28;20190;-77
2022/11/23 22:51:20;;;;;;;6.55;1.70;;;10.10;99.90;;;;;;5054495;28;20187;-77
2022/11/23 22:53:46;;;;;;;5.93;1.80;;;10.10;99.90;;;;;;5080031;28;20236;-75
2022/11/23 22:56:18;;;;;;;3.92;1.70;;;10.10;99.90;;;;;;5086744;28;20176;-75
2022/11/23 22:58:45;;;;;;;6.50;1.67;;;10.20;99.90;;;;;;5090843;28;20230;-76
2022/11/23 23:01:16;;;;;;;6.63;1.85;;;10.10;99.90;;;;;;5057389;28;20185;-77
2022/11/23 23:03:46;;;;;;;7.50;1.60;;;10.10;99.90;;;;;;5095723;28;20230;-76
2022/11/23 23:06:23;;;;;;;5.57;1.50;;;10.10;99.90;;;;;;5055829;28;20202;-77
2022/11/23 23:08:54;;;;;;;5.32;1.58;;;10.10;99.90;;;;;;5095062;28;20184;-74
2022/11/23 23:11:24;;;;;;;4.75;1.55;;;10.10;99.90;;;;;;5061402;28;20183;-76
2022/11/23 23:13:51;;;;;;;5.93;1.80;;;10.10;99.90;;;;;;5061075;28;20180;-77
2022/11/23 23:16:17;;;;;;;7.60;1.77;;;10.10;99.90;;;;;;5060849;28;20187;-77
2022/11/23 23:18:44;;;;;;;4.73;1.27;;;10.00;99.90;;;;;;5094455;28;20172;-77
2022/11/23 23:21:17;;;;;;;4.67;1.63;;;10.10;99.90;;;;;;5094009;28;20204;-77
2022/11/23 23:23:45;;;;;;;4.40;1.70;;;10.00;99.90;;;;;;5093590;28;20196;-77
2022/11/23 23:26:12;;;;;;;5.40;1.67;;;10.00;99.90;;;;;;5096888;28;20173;-74
2022/11/23 23:28:38;;;;;;;6.65;1.60;;;10.00;99.90;;;;;;5060111;28;20173;-77
2022/11/23 23:31:06;;;;;;;5.23;1.30;;;10.00;99.90;;;;;;5090058;28;20177;-77
2022/11/23 23:33:32;;;;;;;5.40;1.60;;;10.00;99.90;;;;;;5093235;28;20264;-77
2022/11/23 23:36:16;;;;;;;5.30;2.00;;;10.00;99.90;;;;;;5092855;28;20177;-78
2022/11/23 23:38:42;;;;;;;4.37;1.23;;;10.00;99.90;;;;;;5093079;28;20168;-78
2022/11/23 23:41:12;;;;;;;5.13;1.27;;;10.00;99.90;;;;;;5091316;28;20209;-78
2022/11/23 23:43:37;;;;;;;4.93;1.40;;;10.00;99.90;;;;;;5057484;28;20176;-78
2022/11/23 23:46:06;;;;;;;4.17;1.17;;;10.00;99.90;;;;;;5076852;28;20184;-78
2022/11/23 23:48:34;;;;;;;5.60;1.27;;;10.00;99.90;;;;;;5050325;28;20372;-78
2022/11/23 23:51:19;;;;;;;6.47;1.40;;;10.00;99.90;;;;;;5049875;28;20184;-78
2022/11/23 23:53:49;;;;;;;6.23;1.70;;;10.00;99.90;;;;;;5089719;28;20195;-78
2022/11/23 23:56:21;;;;;;;4.93;1.57;;;10.00;99.90;;;;;;5078722;28;20226;-78
2022/11/23 23:58:52;;;;;;;6.00;1.70;;;10.00;99.90;;;;;;5100107;28;20185;-78
